createdAt,value
2018-12-22T00:02:15.837Z,90.88
2018-12-22T00:08:19.217Z,93.13
2018-12-22T00:14:22.558Z,94.09
2018-12-22T00:20:25.876Z,93.03
2018-12-22T00:26:29.211Z,90.01
2018-12-22T00:32:32.536Z,87.99
2018-12-22T00:38:35.861Z,86.83
2018-12-22T00:44:39.183Z,85.54
2018-12-22T00:50:43.449Z,84.63
2018-12-22T00:56:46.789Z,84.11
2018-12-22T01:02:50.986Z,83.70
2018-12-22T01:15:26.484Z,83.28
2018-12-22T01:21:29.827Z,82.23
2018-12-22T01:27:33.149Z,82.65
2018-12-22T01:33:36.475Z,82.80
2018-12-22T01:39:39.812Z,82.78
2018-12-22T01:45:43.151Z,82.46
2018-12-22T01:51:46.500Z,82.76
2018-12-22T01:57:49.822Z,82.58
2018-12-22T02:03:53.149Z,82.78
2018-12-22T02:09:56.494Z,82.78
2018-12-22T02:15:59.836Z,82.31
2018-12-22T02:22:03.160Z,81.63
2018-12-22T02:28:06.492Z,81.45
2018-12-22T02:34:09.830Z,80.45
2018-12-22T02:40:13.154Z,79.98
2018-12-22T02:46:16.490Z,78.98
2018-12-22T02:52:19.826Z,79.39
2018-12-22T02:58:23.169Z,80.23
2018-12-22T03:04:26.495Z,81.53
2018-12-22T03:10:29.897Z,83.01
2018-12-22T03:16:33.243Z,86.38
2018-12-22T03:22:36.564Z,89.88
2018-12-22T03:28:39.889Z,90.79
2018-12-22T03:34:43.217Z,92.48
2018-12-22T03:40:46.541Z,91.66
2018-12-22T03:46:49.875Z,92.30
2018-12-22T03:52:53.213Z,92.03
2018-12-22T03:58:56.574Z,92.29
2018-12-22T04:04:59.923Z,92.54
2018-12-22T04:11:03.240Z,92.43
2018-12-22T04:17:06.565Z,92.87
2018-12-22T04:23:09.902Z,92.51
2018-12-22T04:29:13.255Z,93.28
2018-12-22T04:35:16.581Z,93.07
2018-12-22T04:41:19.939Z,93.36
2018-12-22T04:47:23.295Z,93.67
2018-12-22T04:53:26.620Z,93.84
2018-12-22T04:59:29.961Z,93.79
2018-12-22T05:05:33.282Z,93.52
2018-12-22T05:11:36.616Z,93.95
2018-12-22T05:17:39.944Z,93.75
2018-12-22T05:23:43.272Z,93.85
2018-12-22T05:29:51.726Z,94.14
2018-12-22T05:35:52.001Z,93.58
2018-12-22T05:41:55.382Z,92.93
2018-12-22T05:47:58.719Z,93.18
2018-12-22T05:54:02.048Z,93.10
2018-12-22T06:00:09.461Z,92.43
2018-12-22T06:06:12.873Z,92.48
2018-12-22T06:12:16.207Z,92.25
2018-12-22T06:18:19.542Z,92.85
2018-12-22T06:24:22.883Z,94.06
2018-12-22T06:30:26.214Z,94.40
2018-12-22T06:36:29.594Z,94.45
2018-12-22T06:42:33.022Z,94.80
2018-12-22T06:48:36.340Z,94.27
2018-12-22T06:54:39.679Z,94.89
2018-12-22T07:00:43.089Z,94.78
2018-12-22T07:06:46.429Z,94.50
2018-12-22T07:12:49.772Z,93.67
2018-12-22T07:18:53.099Z,94.74
2018-12-22T07:24:56.451Z,94.40
2018-12-22T07:30:59.798Z,94.27
2018-12-22T07:37:03.129Z,91.53
2018-12-22T07:43:06.461Z,90.99
2018-12-22T07:49:09.797Z,91.49
2018-12-22T07:55:13.349Z,91.19
2018-12-22T08:01:16.682Z,91.01
2018-12-22T08:07:20.097Z,91.81
2018-12-22T08:13:23.447Z,90.62
2018-12-22T08:19:26.767Z,91.15
2018-12-22T08:25:30.088Z,91.16
2018-12-22T08:31:33.435Z,91.41
2018-12-22T08:37:36.764Z,91.33
2018-12-22T08:43:40.106Z,91.23
2018-12-22T08:49:43.536Z,91.35
2018-12-22T08:55:46.860Z,91.25
2018-12-22T09:01:50.300Z,92.90
2018-12-22T09:07:53.638Z,93.75
2018-12-22T09:13:56.968Z,93.71
2018-12-22T09:20:00.302Z,93.54
2018-12-22T09:26:03.631Z,92.99
2018-12-22T09:32:06.964Z,92.29
2018-12-22T09:38:10.315Z,90.13
2018-12-22T09:44:13.742Z,89.55
2018-12-22T09:50:17.077Z,89.35
2018-12-22T09:56:20.430Z,91.02
2018-12-22T10:02:23.775Z,91.50
2018-12-22T10:08:27.110Z,92.17
2018-12-22T10:14:30.441Z,93.31
2018-12-22T10:20:33.795Z,92.65
2018-12-22T10:26:37.108Z,91.56
2018-12-22T10:32:40.477Z,92.43
2018-12-22T10:38:43.804Z,91.39
2018-12-22T10:44:47.130Z,91.99
2018-12-22T10:50:50.462Z,92.28
2018-12-22T10:56:53.783Z,91.63
2018-12-22T11:02:57.146Z,91.90
2018-12-22T11:09:00.465Z,92.58
2018-12-22T11:15:06.222Z,92.07
2018-12-22T11:21:09.545Z,92.24
2018-12-22T11:27:12.896Z,92.39
2018-12-22T11:33:16.242Z,93.25
2018-12-22T11:39:19.570Z,92.52
2018-12-22T11:45:22.895Z,92.60
2018-12-22T11:51:26.217Z,91.80
2018-12-22T11:57:29.560Z,91.86
2018-12-22T12:03:32.885Z,92.73
2018-12-22T12:09:36.214Z,93.45
2018-12-22T12:15:45.383Z,93.52
2018-12-22T12:21:48.747Z,93.59
2018-12-22T12:27:52.071Z,93.53
2018-12-22T12:33:55.732Z,93.89
2018-12-22T12:39:59.063Z,94.11
2018-12-22T12:46:02.396Z,94.31
2018-12-22T12:52:05.728Z,93.70
2018-12-22T12:58:09.090Z,93.18
2018-12-22T13:04:12.447Z,94.37
2018-12-22T13:10:15.785Z,92.87
2018-12-22T13:16:19.139Z,94.11
2018-12-22T13:22:22.459Z,94.19
2018-12-22T13:28:25.786Z,94.15
2018-12-22T13:34:29.122Z,94.09
2018-12-22T13:40:32.453Z,93.59
2018-12-22T13:46:35.809Z,92.89
2018-12-22T13:52:39.210Z,92.35
2018-12-22T13:58:42.532Z,92.37
2018-12-22T14:04:45.877Z,93.95
2018-12-22T14:10:49.201Z,92.93
2018-12-22T14:16:52.535Z,93.12
2018-12-22T14:22:56.124Z,93.53
2018-12-22T14:28:59.446Z,91.81
2018-12-22T14:35:03.830Z,91.07
2018-12-22T14:41:07.179Z,90.99
2018-12-22T14:47:10.514Z,90.27
2018-12-22T14:53:13.832Z,88.42
2018-12-22T14:59:17.160Z,85.24
2018-12-22T15:05:20.774Z,85.83
2018-12-22T15:11:24.146Z,85.92
2018-12-22T15:17:27.493Z,86.96
2018-12-22T15:23:30.817Z,87.07
2018-12-22T15:29:34.166Z,88.54
2018-12-22T15:35:37.510Z,89.45
2018-12-22T15:41:40.832Z,91.96
2018-12-22T15:47:46.474Z,92.49
2018-12-22T15:53:49.811Z,90.90
2018-12-22T15:59:53.168Z,88.46
2018-12-22T16:05:56.527Z,86.13
2018-12-22T16:11:59.877Z,85.95
2018-12-22T16:18:03.193Z,85.46
2018-12-22T16:24:06.507Z,83.66
2018-12-22T16:30:26.863Z,84.14
2018-12-22T16:36:30.206Z,83.79
2018-12-22T16:42:33.551Z,82.13
2018-12-22T16:48:37.131Z,83.01
2018-12-22T16:54:40.456Z,82.48
2018-12-22T17:01:08.302Z,83.00
2018-12-22T17:07:11.692Z,83.21
2018-12-22T17:13:15.458Z,83.06
2018-12-22T17:19:18.847Z,82.35
2018-12-22T17:25:22.382Z,82.30
2018-12-22T17:31:25.764Z,82.05
2018-12-22T17:37:29.229Z,83.40
2018-12-22T17:43:32.731Z,82.85
2018-12-22T17:49:36.127Z,82.65
2018-12-22T17:55:39.587Z,82.52
2018-12-22T18:01:42.970Z,82.82
2018-12-22T18:07:46.347Z,83.10
2018-12-22T18:13:49.748Z,83.06
2018-12-22T18:19:53.116Z,82.98
2018-12-22T18:25:56.508Z,83.31
2018-12-22T18:31:59.900Z,81.32
2018-12-22T18:38:03.242Z,81.16
2018-12-22T18:44:06.574Z,80.95
2018-12-22T18:50:15.619Z,80.22
2018-12-22T18:56:18.938Z,80.05
2018-12-22T19:02:22.274Z,81.31
2018-12-22T19:08:25.682Z,79.68
2018-12-22T19:14:29.023Z,79.84
2018-12-22T19:20:37.592Z,78.92
2018-12-22T19:26:40.948Z,77.80
2018-12-22T19:32:44.273Z,77.64
2018-12-22T19:38:47.599Z,76.93
2018-12-22T19:44:50.929Z,77.31
2018-12-22T19:50:54.257Z,77.97
2018-12-22T19:56:57.595Z,78.53
2018-12-22T20:03:00.934Z,78.50
2018-12-22T20:09:05.721Z,77.68
2018-12-22T20:15:09.052Z,78.07
2018-12-22T20:21:12.393Z,77.90
2018-12-22T20:27:15.720Z,77.74
2018-12-22T20:33:19.356Z,78.17
2018-12-22T20:39:22.715Z,78.11
2018-12-22T20:45:26.031Z,79.08
2018-12-22T20:51:29.393Z,80.18
2018-12-22T20:57:32.734Z,79.95
2018-12-22T21:03:40.520Z,80.41
2018-12-22T21:09:43.863Z,80.51
2018-12-22T21:15:47.198Z,81.41
2018-12-22T21:21:50.567Z,81.79
2018-12-22T21:27:53.915Z,81.60
2018-12-22T21:33:57.261Z,82.14
2018-12-22T21:40:00.592Z,82.63
2018-12-22T21:46:03.990Z,83.07
2018-12-22T21:52:07.331Z,83.76
2018-12-22T21:58:10.666Z,83.96
2018-12-22T22:04:13.989Z,83.53
2018-12-22T22:10:17.327Z,83.26
2018-12-22T22:16:20.655Z,83.33
2018-12-22T22:22:25.692Z,83.50
2018-12-22T22:28:29.212Z,83.41
2018-12-22T22:34:32.533Z,83.61
2018-12-22T22:40:35.884Z,85.47
2018-12-22T22:46:39.205Z,85.95
2018-12-22T22:52:42.543Z,87.35
2018-12-22T22:58:45.867Z,88.18
2018-12-22T23:04:54.419Z,88.71
2018-12-22T23:10:54.535Z,89.41
2018-12-22T23:16:57.978Z,90.44
2018-12-22T23:23:01.408Z,90.31
2018-12-22T23:29:04.733Z,91.12
2018-12-22T23:35:08.213Z,90.89
2018-12-22T23:41:11.534Z,90.57
2018-12-22T23:47:14.856Z,90.74
2018-12-22T23:53:18.170Z,90.22
2018-12-22T23:59:21.490Z,89.79
